sensor_id;sensor_type;location;lat;lon;timestamp;pressure;altitude;pressure_sealevel;temperature;humidity
69171;BME280;56279;47.902;12.308;2022-09-14T00:01:41;94727.66;;;17.27;86.04
69171;BME280;56279;47.902;12.308;2022-09-14T00:03:44;94720.66;;;17.22;86.44
69171;BME280;56279;47.902;12.308;2022-09-14T00:05:45;94718.66;;;17.19;86.56
69171;BME280;56279;47.902;12.308;2022-09-14T00:07:47;94725.44;;;17.17;86.66
69171;BME280;56279;47.902;12.308;2022-09-14T00:09:50;94714.66;;;17.13;86.52
69171;BME280;56279;47.902;12.308;2022-09-14T00:11:52;94718.75;;;17.11;86.63
69171;BME280;56279;47.902;12.308;2022-09-14T00:13:55;94719.44;;;17.08;86.41
69171;BME280;56279;47.902;12.308;2022-09-14T00:16:02;94717.88;;;17.07;86.86
69171;BME280;56279;47.902;12.308;2022-09-14T00:18:04;94714.09;;;17.08;86.84
69171;BME280;56279;47.902;12.308;2022-09-14T00:20:06;94706.88;;;17.08;86.84
69171;BME280;56279;47.902;12.308;2022-09-14T00:22:08;94715.34;;;17.10;86.61
69171;BME280;56279;47.902;12.308;2022-09-14T00:24:10;94714.22;;;17.11;86.44
69171;BME280;56279;47.902;12.308;2022-09-14T00:26:14;94720.97;;;17.09;86.55
69171;BME280;56279;47.902;12.308;2022-09-14T00:28:16;94718.31;;;17.09;86.41
69171;BME280;56279;47.902;12.308;2022-09-14T00:30:18;94716.78;;;17.08;86.51
69171;BME280;56279;47.902;12.308;2022-09-14T00:32:19;94714.09;;;17.08;86.59
69171;BME280;56279;47.902;12.308;2022-09-14T00:34:20;94714.41;;;17.06;86.63
69171;BME280;56279;47.902;12.308;2022-09-14T00:36:24;94712.09;;;17.05;86.85
69171;BME280;56279;47.902;12.308;2022-09-14T00:38:26;94711.31;;;17.04;86.98
69171;BME280;56279;47.902;12.308;2022-09-14T00:40:27;94706.75;;;17.05;86.98
69171;BME280;56279;47.902;12.308;2022-09-14T00:42:29;94719.00;;;17.06;87.33
69171;BME280;56279;47.902;12.308;2022-09-14T00:46:36;94715.19;;;17.07;87.47
69171;BME280;56279;47.902;12.308;2022-09-14T00:48:40;94700.78;;;17.08;87.20
69171;BME280;56279;47.902;12.308;2022-09-14T00:50:41;94698.41;;;17.06;87.35
69171;BME280;56279;47.902;12.308;2022-09-14T00:52:46;94694.22;;;17.05;87.29
69171;BME280;56279;47.902;12.308;2022-09-14T00:54:52;94688.09;;;17.05;87.59
69171;BME280;56279;47.902;12.308;2022-09-14T00:56:56;94690.31;;;17.03;87.55
69171;BME280;56279;47.902;12.308;2022-09-14T00:59:02;94699.88;;;17.04;87.80
69171;BME280;56279;47.902;12.308;2022-09-14T01:01:04;94697.19;;;17.04;87.68
69171;BME280;56279;47.902;12.308;2022-09-14T01:03:06;94699.88;;;17.04;87.84
69171;BME280;56279;47.902;12.308;2022-09-14T01:05:08;94701.78;;;17.03;87.69
69171;BME280;56279;47.902;12.308;2022-09-14T01:09:31;94701.97;;;16.98;87.90
69171;BME280;56279;47.902;12.308;2022-09-14T01:11:45;94693.53;;;16.96;87.52
69171;BME280;56279;47.902;12.308;2022-09-14T01:18:31;94680.75;;;16.90;88.20
69171;BME280;56279;47.902;12.308;2022-09-14T01:20:46;94683.75;;;16.88;88.15
69171;BME280;56279;47.902;12.308;2022-09-14T01:27:55;94683.66;;;16.85;88.81
69171;BME280;56279;47.902;12.308;2022-09-14T01:34:32;94672.19;;;16.84;89.30
69171;BME280;56279;47.902;12.308;2022-09-14T01:36:38;94665.75;;;16.85;89.35
69171;BME280;56279;47.902;12.308;2022-09-14T01:38:46;94655.56;;;16.87;89.54
69171;BME280;56279;47.902;12.308;2022-09-14T01:40:49;94650.97;;;16.88;89.39
69171;BME280;56279;47.902;12.308;2022-09-14T01:42:58;94654.00;;;16.86;89.45
69171;BME280;56279;47.902;12.308;2022-09-14T01:45:06;94649.75;;;16.85;89.55
69171;BME280;56279;47.902;12.308;2022-09-14T01:47:31;94648.22;;;16.84;89.60
69171;BME280;56279;47.902;12.308;2022-09-14T01:49:40;94654.63;;;16.83;89.67
69171;BME280;56279;47.902;12.308;2022-09-14T01:51:50;94656.53;;;16.83;89.75
69171;BME280;56279;47.902;12.308;2022-09-14T01:53:58;94659.66;;;16.85;89.87
69171;BME280;56279;47.902;12.308;2022-09-14T01:56:17;94657.31;;;16.83;89.90
69171;BME280;56279;47.902;12.308;2022-09-14T01:58:33;94659.53;;;16.81;90.11
69171;BME280;56279;47.902;12.308;2022-09-14T02:00:39;94658.75;;;16.81;89.95
69171;BME280;56279;47.902;12.308;2022-09-14T02:02:57;94644.19;;;16.78;89.99
69171;BME280;56279;47.902;12.308;2022-09-14T02:07:19;94650.97;;;16.76;90.36
69171;BME280;56279;47.902;12.308;2022-09-14T02:09:21;94646.75;;;16.75;90.51
69171;BME280;56279;47.902;12.308;2022-09-14T02:11:26;94647.84;;;16.74;90.45
69171;BME280;56279;47.902;12.308;2022-09-14T02:13:28;94645.19;;;16.74;90.42
69171;BME280;56279;47.902;12.308;2022-09-14T02:15:30;94656.63;;;16.74;90.64
69171;BME280;56279;47.902;12.308;2022-09-14T02:17:31;94654.31;;;16.73;90.80
69171;BME280;56279;47.902;12.308;2022-09-14T02:19:36;94643.97;;;16.71;90.71
69171;BME280;56279;47.902;12.308;2022-09-14T02:21:40;94637.88;;;16.71;90.82
69171;BME280;56279;47.902;12.308;2022-09-14T02:23:42;94640.97;;;16.73;90.93
69171;BME280;56279;47.902;12.308;2022-09-14T02:25:45;94627.66;;;16.73;90.92
69171;BME280;56279;47.902;12.308;2022-09-14T02:27:47;94633.31;;;16.71;90.84
69171;BME280;56279;47.902;12.308;2022-09-14T02:29:49;94625.31;;;16.71;90.88
69171;BME280;56279;47.902;12.308;2022-09-14T02:36:46;94623.78;;;16.70;90.94
69171;BME280;56279;47.902;12.308;2022-09-14T02:38:56;94621.88;;;16.71;90.78
69171;BME280;56279;47.902;12.308;2022-09-14T02:41:20;94620.75;;;16.72;90.89
69171;BME280;56279;47.902;12.308;2022-09-14T02:43:48;94619.66;;;16.73;90.91
69171;BME280;56279;47.902;12.308;2022-09-14T02:50:15;94616.31;;;16.76;90.99
69171;BME280;56279;47.902;12.308;2022-09-14T02:52:33;94614.78;;;16.75;90.66
69171;BME280;56279;47.902;12.308;2022-09-14T02:54:41;94618.66;;;16.77;90.96
69171;BME280;56279;47.902;12.308;2022-09-14T02:56:44;94618.31;;;16.79;90.94
69171;BME280;56279;47.902;12.308;2022-09-14T02:58:45;94621.88;;;16.83;90.71
69171;BME280;56279;47.902;12.308;2022-09-14T03:00:48;94628.00;;;16.83;90.67
69171;BME280;56279;47.902;12.308;2022-09-14T03:02:50;94625.00;;;16.85;90.63
69171;BME280;56279;47.902;12.308;2022-09-14T03:04:51;94623.09;;;16.85;90.43
69171;BME280;56279;47.902;12.308;2022-09-14T03:06:53;94618.91;;;16.84;90.58
69171;BME280;56279;47.902;12.308;2022-09-14T03:08:54;94618.56;;;16.86;90.54
69171;BME280;56279;47.902;12.308;2022-09-14T03:10:56;94626.22;;;16.87;90.55
69171;BME280;56279;47.902;12.308;2022-09-14T03:12:57;94609.91;;;16.89;90.44
69171;BME280;56279;47.902;12.308;2022-09-14T03:14:58;94608.03;;;16.89;90.51
69171;BME280;56279;47.902;12.308;2022-09-14T03:17:00;94598.91;;;16.90;90.23
69171;BME280;56279;47.902;12.308;2022-09-14T03:19:01;94597.78;;;16.91;90.18
69171;BME280;56279;47.902;12.308;2022-09-14T03:21:07;94594.00;;;16.92;90.09
69171;BME280;56279;47.902;12.308;2022-09-14T03:23:10;94581.91;;;16.95;89.97
69171;BME280;56279;47.902;12.308;2022-09-14T03:25:12;94582.34;;;16.97;89.68
69171;BME280;56279;47.902;12.308;2022-09-14T03:27:14;94582.03;;;16.98;89.60
69171;BME280;56279;47.902;12.308;2022-09-14T03:29:15;94582.81;;;16.99;89.37
69171;BME280;56279;47.902;12.308;2022-09-14T03:31:17;94585.91;;;17.01;89.24
69171;BME280;56279;47.902;12.308;2022-09-14T03:33:18;94581.34;;;17.01;88.86
69171;BME280;56279;47.902;12.308;2022-09-14T03:35:20;94586.66;;;17.01;88.94
69171;BME280;56279;47.902;12.308;2022-09-14T03:37:22;94582.47;;;17.00;88.90
69171;BME280;56279;47.902;12.308;2022-09-14T03:39:23;94588.56;;;17.01;89.02
69171;BME280;56279;47.902;12.308;2022-09-14T03:41:25;94590.47;;;17.00;88.63
69171;BME280;56279;47.902;12.308;2022-09-14T03:43:26;94596.56;;;17.01;88.51
69171;BME280;56279;47.902;12.308;2022-09-14T03:45:27;94583.25;;;17.01;88.72
69171;BME280;56279;47.902;12.308;2022-09-14T03:47:29;94586.66;;;17.01;88.83
69171;BME280;56279;47.902;12.308;2022-09-14T03:49:31;94584.00;;;17.01;88.52
69171;BME280;56279;47.902;12.308;2022-09-14T03:51:33;94582.47;;;17.00;88.64
69171;BME280;56279;47.902;12.308;2022-09-14T03:53:35;94582.47;;;17.00;88.87
69171;BME280;56279;47.902;12.308;2022-09-14T03:55:39;94573.69;;;17.00;88.85
69171;BME280;56279;47.902;12.308;2022-09-14T03:57:40;94572.59;;;17.01;88.77
69171;BME280;56279;47.902;12.308;2022-09-14T03:59:41;94575.25;;;17.01;88.93
69171;BME280;56279;47.902;12.308;2022-09-14T04:01:42;94569.56;;;17.02;88.90
69171;BME280;56279;47.902;12.308;2022-09-14T04:03:44;94570.34;;;17.03;89.08
69171;BME280;56279;47.902;12.308;2022-09-14T04:05:53;94570.34;;;17.03;88.82
69171;BME280;56279;47.902;12.308;2022-09-14T04:07:55;94565.03;;;17.03;88.98
69171;BME280;56279;47.902;12.308;2022-09-14T04:09:57;94569.22;;;17.04;89.11
69171;BME280;56279;47.902;12.308;2022-09-14T04:11:59;94570.34;;;17.03;89.09
69171;BME280;56279;47.902;12.308;2022-09-14T04:14:01;94574.56;;;17.04;88.97
69171;BME280;56279;47.902;12.308;2022-09-14T04:16:03;94572.22;;;17.02;89.01
69171;BME280;56279;47.902;12.308;2022-09-14T04:18:05;94576.00;;;17.01;89.24
69171;BME280;56279;47.902;12.308;2022-09-14T04:20:07;94583.25;;;17.01;89.04
69171;BME280;56279;47.902;12.308;2022-09-14T04:22:08;94579.44;;;17.02;89.01
69171;BME280;56279;47.902;12.308;2022-09-14T04:24:11;94579.44;;;17.02;88.94
69171;BME280;56279;47.902;12.308;2022-09-14T04:26:17;94579.88;;;17.04;88.72
69171;BME280;56279;47.902;12.308;2022-09-14T04:28:20;94575.47;;;17.08;88.55
69171;BME280;56279;47.902;12.308;2022-09-14T04:30:22;94572.09;;;17.11;88.56
69171;BME280;56279;47.902;12.308;2022-09-14T04:32:23;94574.09;;;17.14;88.52
69171;BME280;56279;47.902;12.308;2022-09-14T04:34:25;94571.88;;;17.16;88.17
69171;BME280;56279;47.902;12.308;2022-09-14T04:36:27;94569.22;;;17.16;88.12
69171;BME280;56279;47.902;12.308;2022-09-14T04:38:31;94574.22;;;17.17;87.65
69171;BME280;56279;47.902;12.308;2022-09-14T04:40:33;94570.44;;;17.18;87.64
69171;BME280;56279;47.902;12.308;2022-09-14T04:42:34;94583.88;;;17.22;87.67
69171;BME280;56279;47.902;12.308;2022-09-14T04:44:35;94583.97;;;17.25;87.65
69171;BME280;56279;47.902;12.308;2022-09-14T04:46:37;94579.50;;;17.29;87.26
69171;BME280;56279;47.902;12.308;2022-09-14T04:48:41;94577.31;;;17.32;86.97
69171;BME280;56279;47.902;12.308;2022-09-14T04:50:43;94573.94;;;17.35;87.13
69171;BME280;56279;47.902;12.308;2022-09-14T04:52:44;94572.06;;;17.35;86.92
69171;BME280;56279;47.902;12.308;2022-09-14T04:54:46;94573.63;;;17.36;86.58
69171;BME280;56279;47.902;12.308;2022-09-14T04:56:48;94572.16;;;17.39;86.82
69171;BME280;56279;47.902;12.308;2022-09-14T04:58:51;94567.59;;;17.39;86.52
69171;BME280;56279;47.902;12.308;2022-09-14T05:00:54;94571.84;;;17.40;86.44
69171;BME280;56279;47.902;12.308;2022-09-14T05:02:55;94567.28;;;17.41;86.10
69171;BME280;56279;47.902;12.308;2022-09-14T05:04:57;94564.28;;;17.42;85.74
69171;BME280;56279;47.902;12.308;2022-09-14T05:06:59;94570.03;;;17.44;85.75
69171;BME280;56279;47.902;12.308;2022-09-14T05:09:01;94575.50;;;17.48;85.65
69171;BME280;56279;47.902;12.308;2022-09-14T05:11:05;94586.28;;;17.51;85.39
69171;BME280;56279;47.902;12.308;2022-09-14T05:13:06;94579.06;;;17.52;85.52
69171;BME280;56279;47.902;12.308;2022-09-14T05:15:08;94574.03;;;17.50;86.05
69171;BME280;56279;47.902;12.308;2022-09-14T05:17:10;94586.28;;;17.51;86.19
69171;BME280;56279;47.902;12.308;2022-09-14T05:19:14;94582.03;;;17.50;85.94
69171;BME280;56279;47.902;12.308;2022-09-14T05:21:19;94593.94;;;17.53;86.09
69171;BME280;56279;47.902;12.308;2022-09-14T05:23:20;94585.19;;;17.52;85.97
69171;BME280;56279;47.902;12.308;2022-09-14T05:25:25;94579.50;;;17.54;86.25
69171;BME280;56279;47.902;12.308;2022-09-14T05:27:27;94586.06;;;17.56;86.41
69171;BME280;56279;47.902;12.308;2022-09-14T05:29:28;94589.16;;;17.58;85.92
69171;BME280;56279;47.902;12.308;2022-09-14T05:31:30;94588.50;;;17.61;86.24
69171;BME280;56279;47.902;12.308;2022-09-14T05:33:32;94600.69;;;17.62;86.20
69171;BME280;56279;47.902;12.308;2022-09-14T05:35:34;94596.50;;;17.61;86.17
69171;BME280;56279;47.902;12.308;2022-09-14T05:37:35;94595.72;;;17.61;86.07
69171;BME280;56279;47.902;12.308;2022-09-14T05:39:36;94599.94;;;17.62;86.11
69171;BME280;56279;47.902;12.308;2022-09-14T05:41:38;94615.16;;;17.61;85.91
69171;BME280;56279;47.902;12.308;2022-09-14T05:43:39;94623.19;;;17.61;86.11
69171;BME280;56279;47.902;12.308;2022-09-14T05:45:41;94620.81;;;17.60;85.94
69171;BME280;56279;47.902;12.308;2022-09-14T05:47:42;94614.31;;;17.57;86.21
69171;BME280;56279;47.902;12.308;2022-09-14T05:49:43;94626.06;;;17.56;86.34
69171;BME280;56279;47.902;12.308;2022-09-14T05:51:44;94620.75;;;17.56;86.55
69171;BME280;56279;47.902;12.308;2022-09-14T05:53:50;94611.94;;;17.56;86.47
69171;BME280;56279;47.902;12.308;2022-09-14T05:56:02;94607.41;;;17.56;86.38
69171;BME280;56279;47.902;12.308;2022-09-14T05:58:06;94605.94;;;17.59;86.48
69171;BME280;56279;47.902;12.308;2022-09-14T06:00:08;94600.69;;;17.62;86.48
69171;BME280;56279;47.902;12.308;2022-09-14T06:02:13;94596.69;;;17.68;86.89
69171;BME280;56279;47.902;12.308;2022-09-14T06:04:15;94588.44;;;17.73;86.48
69171;BME280;56279;47.902;12.308;2022-09-14T06:06:17;94586.72;;;17.81;86.51
69171;BME280;56279;47.902;12.308;2022-09-14T06:08:22;94582.59;;;17.83;86.66
69171;BME280;56279;47.902;12.308;2022-09-14T06:10:24;94589.94;;;17.86;86.53
69171;BME280;56279;47.902;12.308;2022-09-14T06:12:26;94582.81;;;17.90;86.74
69171;BME280;56279;47.902;12.308;2022-09-14T06:14:28;94589.03;;;17.94;86.54
69171;BME280;56279;47.902;12.308;2022-09-14T06:16:29;94584.44;;;17.95;86.77
69171;BME280;56279;47.902;12.308;2022-09-14T06:18:32;94576.78;;;17.93;86.74
69171;BME280;56279;47.902;12.308;2022-09-14T06:20:34;94585.16;;;17.92;87.25
69171;BME280;56279;47.902;12.308;2022-09-14T06:22:44;94579.81;;;17.92;87.36
69171;BME280;56279;47.902;12.308;2022-09-14T06:24:52;94587.03;;;17.91;87.61
69171;BME280;56279;47.902;12.308;2022-09-14T06:26:57;94592.03;;;17.93;87.57
69171;BME280;56279;47.902;12.308;2022-09-14T06:29:02;94602.81;;;17.97;87.34
69171;BME280;56279;47.902;12.308;2022-09-14T06:31:04;94601.38;;;17.99;87.02
69171;BME280;56279;47.902;12.308;2022-09-14T06:33:07;94593.78;;;18.01;86.71
69171;BME280;56279;47.902;12.308;2022-09-14T06:38:51;94600.97;;;18.13;85.53
69171;BME280;56279;47.902;12.308;2022-09-14T06:41:12;94595.03;;;18.19;85.34
69171;BME280;56279;47.902;12.308;2022-09-14T06:43:16;94594.00;;;18.24;85.65
69171;BME280;56279;47.902;12.308;2022-09-14T06:45:24;94594.09;;;18.27;85.44
69171;BME280;56279;47.902;12.308;2022-09-14T06:47:32;94588.50;;;18.32;85.57
69171;BME280;56279;47.902;12.308;2022-09-14T06:49:34;94593.59;;;18.37;85.43
69171;BME280;56279;47.902;12.308;2022-09-14T06:51:37;94583.84;;;18.45;85.50
69171;BME280;56279;47.902;12.308;2022-09-14T06:53:51;94598.22;;;18.52;85.75
69171;BME280;56279;47.902;12.308;2022-09-14T06:58:01;94590.13;;;18.65;85.41
69171;BME280;56279;47.902;12.308;2022-09-14T07:00:06;94598.31;;;18.72;85.01
69171;BME280;56279;47.902;12.308;2022-09-14T07:02:54;94594.66;;;18.80;84.71
69171;BME280;56279;47.902;12.308;2022-09-14T07:04:57;94602.59;;;18.92;83.86
69171;BME280;56279;47.902;12.308;2022-09-14T07:07:16;94597.84;;;19.01;83.68
69171;BME280;56279;47.902;12.308;2022-09-14T07:09:21;94604.94;;;19.09;83.16
69171;BME280;56279;47.902;12.308;2022-09-14T07:11:49;94586.41;;;19.19;83.48
69171;BME280;56279;47.902;12.308;2022-09-14T07:13:52;94602.63;;;19.26;82.12
69171;BME280;56279;47.902;12.308;2022-09-14T07:16:03;94599.75;;;19.35;81.92
69171;BME280;56279;47.902;12.308;2022-09-14T07:18:08;94612.56;;;19.42;82.08
69171;BME280;56279;47.902;12.308;2022-09-14T07:20:09;94611.16;;;19.48;81.84
69171;BME280;56279;47.902;12.308;2022-09-14T07:22:14;94610.09;;;19.52;81.28
69171;BME280;56279;47.902;12.308;2022-09-14T07:24:18;94610.16;;;19.56;81.18
69171;BME280;56279;47.902;12.308;2022-09-14T07:26:24;94608.38;;;19.60;81.21
69171;BME280;56279;47.902;12.308;2022-09-14T07:28:30;94613.44;;;19.65;81.33
69171;BME280;56279;47.902;12.308;2022-09-14T07:30:38;94614.72;;;19.71;81.44
69171;BME280;56279;47.902;12.308;2022-09-14T07:32:41;94615.97;;;19.77;80.80
69171;BME280;56279;47.902;12.308;2022-09-14T07:34:45;94627.19;;;19.82;80.99
69171;BME280;56279;47.902;12.308;2022-09-14T07:36:47;94618.09;;;19.87;79.89
69171;BME280;56279;47.902;12.308;2022-09-14T07:38:52;94615.06;;;19.88;79.93
69171;BME280;56279;47.902;12.308;2022-09-14T07:40:57;94618.53;;;19.89;79.35
69171;BME280;56279;47.902;12.308;2022-09-14T07:43:01;94610.50;;;19.89;79.39
69171;BME280;56279;47.902;12.308;2022-09-14T07:45:04;94601.34;;;19.90;79.64
69171;BME280;56279;47.902;12.308;2022-09-14T07:47:15;94604.34;;;19.88;79.35
69171;BME280;56279;47.902;12.308;2022-09-14T07:49:20;94601.34;;;19.90;79.40
69171;BME280;56279;47.902;12.308;2022-09-14T07:51:23;94599.06;;;19.92;78.65
69171;BME280;56279;47.902;12.308;2022-09-14T07:53:28;94594.56;;;19.96;78.58
69171;BME280;56279;47.902;12.308;2022-09-14T07:55:30;94595.84;;;20.02;78.24
69171;BME280;56279;47.902;12.308;2022-09-14T07:57:32;94590.25;;;20.11;78.71
69171;BME280;56279;47.902;12.308;2022-09-14T07:59:34;94590.38;;;20.18;78.09
69171;BME280;56279;47.902;12.308;2022-09-14T08:01:35;94593.59;;;20.23;77.91
69171;BME280;56279;47.902;12.308;2022-09-14T08:03:38;94587.59;;;20.30;78.05
69171;BME280;56279;47.902;12.308;2022-09-14T08:05:43;94595.66;;;20.33;78.22
69171;BME280;56279;47.902;12.308;2022-09-14T08:07:44;94588.81;;;20.36;77.82
69171;BME280;56279;47.902;12.308;2022-09-14T08:09:45;94593.84;;;20.37;77.83
69171;BME280;56279;47.902;12.308;2022-09-14T08:11:47;94591.59;;;20.39;77.93
69171;BME280;56279;47.902;12.308;2022-09-14T08:13:50;94602.78;;;20.45;77.54
69171;BME280;56279;47.902;12.308;2022-09-14T08:15:52;94599.44;;;20.51;77.97
69171;BME280;56279;47.902;12.308;2022-09-14T08:17:54;94600.34;;;20.59;77.18
69171;BME280;56279;47.902;12.308;2022-09-14T08:19:55;94602.94;;;20.75;76.98
69171;BME280;56279;47.902;12.308;2022-09-14T08:21:56;94599.63;;;20.85;76.35
69171;BME280;56279;47.902;12.308;2022-09-14T08:23:58;94598.66;;;20.96;76.23
69171;BME280;56279;47.902;12.308;2022-09-14T08:26:04;94608.44;;;21.08;76.25
69171;BME280;56279;47.902;12.308;2022-09-14T08:28:06;94607.44;;;21.16;75.66
69171;BME280;56279;47.902;12.308;2022-09-14T08:30:07;94600.28;;;21.23;75.47
69171;BME280;56279;47.902;12.308;2022-09-14T08:32:10;94605.38;;;21.32;75.50
69171;BME280;56279;47.902;12.308;2022-09-14T08:34:14;94602.38;;;21.37;74.82
69171;BME280;56279;47.902;12.308;2022-09-14T08:36:18;94597.91;;;21.45;74.97
69171;BME280;56279;47.902;12.308;2022-09-14T08:38:19;94593.78;;;21.54;75.60
69171;BME280;56279;47.902;12.308;2022-09-14T08:40:21;94596.25;;;21.66;74.78
69171;BME280;56279;47.902;12.308;2022-09-14T08:42:22;94592.94;;;21.76;74.53
69171;BME280;56279;47.902;12.308;2022-09-14T08:44:44;94595.75;;;21.87;74.18
69171;BME280;56279;47.902;12.308;2022-09-14T08:49:35;94589.47;;;22.06;73.40
69171;BME280;56279;47.902;12.308;2022-09-14T08:51:33;94600.34;;;22.16;73.04
69171;BME280;56279;47.902;12.308;2022-09-14T08:53:37;94602.72;;;22.25;73.27
69171;BME280;56279;47.902;12.308;2022-09-14T08:55:48;94609.78;;;22.36;73.03
69171;BME280;56279;47.902;12.308;2022-09-14T08:58:34;94611.03;;;22.46;72.27
69171;BME280;56279;47.902;12.308;2022-09-14T09:00:46;94604.94;;;22.52;71.55
69171;BME280;56279;47.902;12.308;2022-09-14T09:05:42;94609.38;;;22.71;71.23
69171;BME280;56279;47.902;12.308;2022-09-14T09:07:58;94611.00;;;22.83;70.58
69171;BME280;56279;47.902;12.308;2022-09-14T09:10:03;94619.59;;;22.95;70.68
69171;BME280;56279;47.902;12.308;2022-09-14T09:12:05;94603.50;;;23.02;70.61
69171;BME280;56279;47.902;12.308;2022-09-14T09:14:15;94611.63;;;23.09;70.15
69171;BME280;56279;47.902;12.308;2022-09-14T09:16:21;94627.44;;;23.14;69.64
69171;BME280;56279;47.902;12.308;2022-09-14T09:18:40;94619.78;;;23.16;69.91
69171;BME280;56279;47.902;12.308;2022-09-14T09:20:48;94615.50;;;23.15;69.25
69171;BME280;56279;47.902;12.308;2022-09-14T09:25:20;94621.28;;;23.14;69.18
69171;BME280;56279;47.902;12.308;2022-09-14T09:27:25;94631.31;;;23.17;68.82
69171;BME280;56279;47.902;12.308;2022-09-14T09:29:27;94628.63;;;23.20;68.58
69171;BME280;56279;47.902;12.308;2022-09-14T09:31:48;94631.38;;;23.27;68.40
69171;BME280;56279;47.902;12.308;2022-09-14T09:34:16;94629.56;;;23.35;68.15
69171;BME280;56279;47.902;12.308;2022-09-14T09:36:21;94635.38;;;23.41;66.88
69171;BME280;56279;47.902;12.308;2022-09-14T09:38:25;94643.03;;;23.38;66.80
69171;BME280;56279;47.902;12.308;2022-09-14T09:40:36;94646.91;;;23.41;67.10
69171;BME280;56279;47.902;12.308;2022-09-14T09:43:14;94648.47;;;23.42;67.23
69171;BME280;56279;47.902;12.308;2022-09-14T09:45:15;94639.25;;;23.43;67.45
69171;BME280;56279;47.902;12.308;2022-09-14T09:47:24;94638.50;;;23.50;67.16
69171;BME280;56279;47.902;12.308;2022-09-14T09:49:32;94634.34;;;23.59;66.97
69171;BME280;56279;47.902;12.308;2022-09-14T09:51:35;94632.09;;;23.68;66.89
69171;BME280;56279;47.902;12.308;2022-09-14T09:53:45;94623.25;;;23.75;66.06
69171;BME280;56279;47.902;12.308;2022-09-14T09:55:48;94622.91;;;23.80;66.36
69171;BME280;56279;47.902;12.308;2022-09-14T09:57:49;94621.38;;;23.86;66.41
69171;BME280;56279;47.902;12.308;2022-09-14T09:59:50;94623.72;;;23.91;66.09
69171;BME280;56279;47.902;12.308;2022-09-14T10:01:54;94624.16;;;23.96;65.44
69171;BME280;56279;47.902;12.308;2022-09-14T10:06:11;94613.03;;;24.09;65.55
69171;BME280;56279;47.902;12.308;2022-09-14T10:08:13;94611.53;;;24.15;65.06
69171;BME280;56279;47.902;12.308;2022-09-14T10:10:19;94610.03;;;24.24;64.58
69171;BME280;56279;47.902;12.308;2022-09-14T10:12:21;94594.25;;;24.37;64.61
69171;BME280;56279;47.902;12.308;2022-09-14T10:14:31;94599.28;;;24.49;64.63
69171;BME280;56279;47.902;12.308;2022-09-14T10:16:37;94591.63;;;24.61;63.97
69171;BME280;56279;47.902;12.308;2022-09-14T10:18:47;94588.53;;;24.70;62.72
69171;BME280;56279;47.902;12.308;2022-09-14T10:22:54;94580.88;;;24.90;62.33
69171;BME280;56279;47.902;12.308;2022-09-14T10:25:20;94578.94;;;25.04;62.73
69171;BME280;56279;47.902;12.308;2022-09-14T10:27:40;94565.84;;;25.13;60.82
69171;BME280;56279;47.902;12.308;2022-09-14T10:29:43;94568.91;;;25.19;61.25
69171;BME280;56279;47.902;12.308;2022-09-14T10:31:45;94567.34;;;25.28;60.28
69171;BME280;56279;47.902;12.308;2022-09-14T10:33:51;94562.31;;;25.34;60.56
69171;BME280;56279;47.902;12.308;2022-09-14T10:36:22;94559.22;;;25.42;59.87
69171;BME280;56279;47.902;12.308;2022-09-14T10:38:53;94563.50;;;25.51;59.68
69171;BME280;56279;47.902;12.308;2022-09-14T10:41:20;94548.81;;;25.55;58.97
69171;BME280;56279;47.902;12.308;2022-09-14T10:45:48;94548.34;;;25.67;58.67
69171;BME280;56279;47.902;12.308;2022-09-14T10:52:32;94540.59;;;25.80;59.20
69171;BME280;56279;47.902;12.308;2022-09-14T10:57:24;94530.59;;;25.73;59.09
69171;BME280;56279;47.902;12.308;2022-09-14T10:59:35;94517.09;;;25.66;59.03
69171;BME280;56279;47.902;12.308;2022-09-14T11:08:40;94511.63;;;25.80;59.13
69171;BME280;56279;47.902;12.308;2022-09-14T11:20:57;94493.34;;;26.09;59.42
69171;BME280;56279;47.902;12.308;2022-09-14T11:25:25;94487.84;;;26.27;57.83
69171;BME280;56279;47.902;12.308;2022-09-14T11:28:02;94486.63;;;26.35;58.28
69171;BME280;56279;47.902;12.308;2022-09-14T11:30:15;94488.16;;;26.39;58.55
69171;BME280;56279;47.902;12.308;2022-09-14T11:34:25;94488.94;;;26.36;57.05
69171;BME280;56279;47.902;12.308;2022-09-14T11:36:40;94485.81;;;26.38;57.32
69171;BME280;56279;47.902;12.308;2022-09-14T11:38:50;94484.66;;;26.39;56.03
69171;BME280;56279;47.902;12.308;2022-09-14T11:41:13;94476.13;;;26.44;55.57
69171;BME280;56279;47.902;12.308;2022-09-14T11:45:54;94475.78;;;26.38;56.46
69171;BME280;56279;47.902;12.308;2022-09-14T11:48:27;94480.81;;;26.36;55.57
69171;BME280;56279;47.902;12.308;2022-09-14T11:50:29;94471.16;;;26.35;55.25
69171;BME280;56279;47.902;12.308;2022-09-14T11:52:32;94459.97;;;26.33;55.42
69171;BME280;56279;47.902;12.308;2022-09-14T11:54:34;94474.69;;;26.29;55.65
69171;BME280;56279;47.902;12.308;2022-09-14T11:56:39;94468.53;;;26.25;55.22
69171;BME280;56279;47.902;12.308;2022-09-14T11:58:45;94473.53;;;26.26;55.06
69171;BME280;56279;47.902;12.308;2022-09-14T12:01:25;94471.56;;;26.34;55.23
69171;BME280;56279;47.902;12.308;2022-09-14T12:11:27;94450.00;;;26.71;54.78
69171;BME280;56279;47.902;12.308;2022-09-14T12:13:19;94445.63;;;26.84;54.19
69171;BME280;56279;47.902;12.308;2022-09-14T12:17:31;94432.16;;;27.18;54.15
69171;BME280;56279;47.902;12.308;2022-09-14T12:19:32;94435.41;;;27.36;54.49
69171;BME280;56279;47.902;12.308;2022-09-14T12:21:35;94434.91;;;27.48;53.81
69171;BME280;56279;47.902;12.308;2022-09-14T12:25:38;94435.28;;;27.50;52.52
69171;BME280;56279;47.902;12.308;2022-09-14T12:27:52;94429.16;;;27.42;51.40
69171;BME280;56279;47.902;12.308;2022-09-14T12:29:53;94427.28;;;27.36;51.44
69171;BME280;56279;47.902;12.308;2022-09-14T12:34:17;94426.97;;;27.30;50.92